ICAO code: LHPR | IATA code: QGY | SITA: QGYAPXH | AFTN: LHPRZPZX

Időjárási adatok

METAR LHPR 281545Z AUTO 30022KT CAVOK 22/14 Q1014 TEMPO SHRA SCT040CB=
TAF LHPR 281415Z 2815/2824 33014G28KT CAVOK
TEMPO 2815/2819 VRB22G36KT 7000 SHRA TSRA SCT045CB BKN060=
Nem volt érdemleges időjárási jelenség az elmúlt órában
2024-05-28 15:50:00 UTC
NOTAM A2683/24: Győr-Pér International Airport (LHPR)

A2683/24 NOTAMN
Q) LHCC/QFALT/IV/NBO/A /000/999/4738N01749E005
A) LHPR B) 2406030600 C) 2406041600
D) 0600-1600
E) LOCAL TRAINING FLIGHTS NOT ALLOWED. FOR ARR/DEP BY PPR CONTACT 
WITH LHPR OPS(A)LHPR.HU OR TEL: +36 96 559 200.
CREATED: 28 May 2024 07:56:00 
SOURCE: EUECYIYN


NOTAM A2132/24: Győr-Pér International Airport (LHPR)

A2132/24 NOTAMN
Q) LHCC/QFALC/IV/NBO/A /000/999/4738N01749E005
A) LHPR B) 2408050600 C) 2408211600
D) 0600-1600
E) AERODROME CLSD.
CREATED: 06 May 2024 08:26:00 
SOURCE: EUECYIYN


Hőmérséklet
22.0 °C
 
Harmatpont
13.2 °C
 
Rel. páratartalom
57%
 
QNH
1014.7 hPa
 
Szélsebesség
11.5 m/s
Max
14.3 m/s
Szélirány
290°
 
Csapadék (1 óra)
0.0 mm
 
Látótávolság
20000 m
 
RVR
>1500 m RWY29
 
1. felhőréteg mennyisége
1 octa
 
1. felhőréteg alapja
2010 m